Time;durP1;ratioP1;P1;durP2;ratioP2;P2;SDS_P1;SDS_P2;PMS_P1;PMS_P2;Temp;Humidity;BMP_temperature;BMP_pressure;BME280_temperature;BME280_humidity;BME280_pressure;Samples;Min_cycle;Max_cycle;Signal;HPM_P1;HPM_P2
2021/12/23 00:01:54;;;;;;;26.43;14.80;;;-2.80;99.90;;;;;;5093904;28;20414;-85
2021/12/23 00:04:20;;;;;;;29.47;13.87;;;-2.80;99.90;;;;;;5092699;28;20172;-85
2021/12/23 00:06:46;;;;;;;24.20;13.20;;;-2.90;99.90;;;;;;5094007;28;20177;-86
2021/12/23 00:09:12;;;;;;;29.60;12.70;;;-2.90;99.90;;;;;;5093978;28;20256;-87
2021/12/23 00:11:38;;;;;;;25.73;15.93;;;-2.90;99.90;;;;;;5093797;28;20189;-85
2021/12/23 00:14:07;;;;;;;32.80;14.90;;;-2.90;99.90;;;;;;5093747;28;20412;-86
2021/12/23 00:16:46;;;;;;;28.77;15.17;;;-2.90;99.90;;;;;;5093763;28;20945;-85
2021/12/23 00:19:36;;;;;;;23.50;10.50;;;-2.90;99.90;;;;;;5093558;28;20501;-87
2021/12/23 00:24:48;;;;;;;21.13;13.13;;;-2.90;99.90;;;;;;5093929;28;20424;-85
2021/12/23 00:27:14;;;;;;;25.13;13.90;;;-2.90;99.90;;;;;;5093644;28;20496;-85
2021/12/23 00:29:40;;;;;;;26.93;13.47;;;-2.90;99.90;;;;;;5092186;28;20423;-84
2021/12/23 00:32:08;;;;;;;24.90;13.60;;;-2.90;99.90;;;;;;5093616;28;20425;-84
2021/12/23 00:34:37;;;;;;;23.10;14.13;;;-2.90;99.90;;;;;;5092992;28;20993;-84
2021/12/23 00:37:07;;;;;;;25.47;13.77;;;-2.90;99.90;;;;;;5093456;28;20422;-85
2021/12/23 00:39:33;;;;;;;20.07;12.30;;;-2.80;99.90;;;;;;5092768;28;20857;-85
2021/12/23 00:42:06;;;;;;;20.90;11.80;;;-2.80;99.90;;;;;;5093127;28;20423;-85
2021/12/23 00:44:33;;;;;;;23.70;12.90;;;-2.90;99.90;;;;;;5075528;28;20175;-86
2021/12/23 00:46:59;;;;;;;26.00;12.37;;;-2.90;99.90;;;;;;5083089;28;20436;-87
2021/12/23 00:49:24;;;;;;;26.87;14.07;;;-2.90;99.90;;;;;;5071492;28;20411;-86
2021/12/23 00:51:50;;;;;;;30.83;15.17;;;-2.80;99.90;;;;;;5072038;28;20263;-87
2021/12/23 00:54:16;;;;;;;29.70;15.93;;;-2.90;99.90;;;;;;5083670;28;20190;-89
2021/12/23 00:56:48;;;;;;;23.03;12.53;;;-2.90;99.90;;;;;;5092065;28;20199;-87
2021/12/23 00:59:13;;;;;;;14.67;10.20;;;-2.90;99.90;;;;;;5093698;28;20169;-87
2021/12/23 01:01:39;;;;;;;26.47;12.80;;;-2.90;99.90;;;;;;5092492;28;20487;-87
2021/12/23 01:04:04;;;;;;;28.07;14.47;;;-2.90;99.90;;;;;;5093675;28;20180;-89
2021/12/23 01:06:30;;;;;;;21.60;12.20;;;-2.90;99.90;;;;;;5093630;28;20174;-87
2021/12/23 01:08:55;;;;;;;28.23;13.23;;;-2.90;99.90;;;;;;5093219;28;20181;-88
2021/12/23 01:11:21;;;;;;;18.60;10.27;;;-2.90;99.90;;;;;;5092179;28;20270;-89
2021/12/23 01:14:00;;;;;;;24.67;13.33;;;-2.90;99.90;;;;;;5089947;28;20195;-91
2021/12/23 01:16:48;;;;;;;24.03;14.03;;;-2.80;99.90;;;;;;5072220;28;20190;-87
2021/12/23 01:19:13;;;;;;;19.37;12.40;;;-2.90;99.90;;;;;;5072478;28;20933;-89
2021/12/23 01:21:39;;;;;;;18.37;8.93;;;-2.90;99.90;;;;;;5071677;28;20487;-89
2021/12/23 01:24:05;;;;;;;16.87;11.90;;;-2.90;99.90;;;;;;5072966;28;20419;-90
2021/12/23 01:26:30;;;;;;;18.47;11.07;;;-2.90;99.90;;;;;;5071600;28;20178;-86
2021/12/23 01:28:58;;;;;;;24.93;12.20;;;-2.90;99.90;;;;;;5072923;28;20423;-87
2021/12/23 01:31:27;;;;;;;18.63;9.47;;;-2.90;99.90;;;;;;5072791;28;20183;-88
2021/12/23 01:33:53;;;;;;;26.70;10.83;;;-2.90;99.90;;;;;;5072862;28;20918;-87
2021/12/23 01:36:19;;;;;;;19.90;12.47;;;-2.80;99.90;;;;;;5072391;28;20761;-88
2021/12/23 01:38:44;;;;;;;25.20;13.00;;;-2.80;99.90;;;;;;5088091;28;20472;-87
2021/12/23 01:41:10;;;;;;;22.30;12.63;;;-2.80;99.90;;;;;;5076857;28;20474;-87
2021/12/23 01:43:36;;;;;;;28.60;12.57;;;-2.80;99.90;;;;;;5091611;28;20200;-87
2021/12/23 01:46:03;;;;;;;20.93;11.37;;;-2.80;99.90;;;;;;5091722;28;20472;-86
2021/12/23 01:48:28;;;;;;;25.67;13.50;;;-2.80;99.90;;;;;;5092999;28;20172;-86
2021/12/23 01:50:54;;;;;;;25.33;12.80;;;-2.80;99.90;;;;;;5091116;28;20518;-87
2021/12/23 01:53:20;;;;;;;23.73;12.60;;;-2.70;99.90;;;;;;5092905;28;20226;-86
2021/12/23 01:55:46;;;;;;;21.07;12.30;;;-2.70;99.90;;;;;;5094608;28;20229;-87
2021/12/23 01:58:13;;;;;;;22.10;13.30;;;-2.70;99.90;;;;;;5096466;28;20220;-88
2021/12/23 02:00:43;;;;;;;27.17;12.97;;;-2.70;99.90;;;;;;5096373;28;20474;-87
2021/12/23 02:03:10;;;;;;;19.53;13.23;;;-2.70;99.90;;;;;;5095485;28;20411;-88
2021/12/23 02:05:36;;;;;;;29.00;12.23;;;-2.70;99.90;;;;;;5096370;28;20427;-86
2021/12/23 02:08:01;;;;;;;23.67;13.67;;;-2.70;99.90;;;;;;5096507;28;20763;-90
2021/12/23 02:10:28;;;;;;;24.93;11.60;;;-2.70;99.90;;;;;;5096640;28;20648;-90
2021/12/23 02:12:54;;;;;;;25.23;12.10;;;-2.60;99.90;;;;;;5095352;28;20179;-87
2021/12/23 02:15:20;;;;;;;25.20;13.57;;;-2.70;99.90;;;;;;5096373;28;20428;-86
2021/12/23 02:17:47;;;;;;;21.43;14.43;;;-2.70;99.90;;;;;;5096552;28;20421;-87
2021/12/23 02:20:16;;;;;;;25.37;13.60;;;-2.70;99.90;;;;;;5095758;28;20464;-88
2021/12/23 02:22:42;;;;;;;32.43;15.13;;;-2.60;99.90;;;;;;5096083;28;20414;-87
2021/12/23 02:25:10;;;;;;;28.70;13.80;;;-2.60;99.90;;;;;;5096113;28;20506;-87
2021/12/23 02:27:36;;;;;;;14.70;10.00;;;-2.60;99.90;;;;;;5096155;28;20916;-87
2021/12/23 02:30:05;;;;;;;26.70;13.60;;;-2.60;99.90;;;;;;5094752;28;20464;-86
2021/12/23 02:32:31;;;;;;;23.47;13.63;;;-2.60;99.90;;;;;;5095427;28;20183;-88
2021/12/23 02:34:56;;;;;;;24.60;11.77;;;-2.60;99.90;;;;;;5094133;28;20465;-87
2021/12/23 02:37:22;;;;;;;21.90;10.77;;;-2.60;99.90;;;;;;5094354;28;20209;-86
2021/12/23 02:39:47;;;;;;;24.53;13.20;;;-2.60;99.90;;;;;;5093667;28;20646;-87
2021/12/23 02:42:13;;;;;;;23.23;11.80;;;-2.60;99.90;;;;;;5091831;28;20224;-86
2021/12/23 02:44:39;;;;;;;21.23;12.70;;;-2.60;99.90;;;;;;5094330;28;20227;-86
2021/12/23 02:47:05;;;;;;;28.23;13.50;;;-2.60;99.90;;;;;;5094524;28;20538;-87
2021/12/23 02:49:32;;;;;;;22.30;11.60;;;-2.60;99.90;;;;;;5092642;28;20258;-86
2021/12/23 02:51:57;;;;;;;21.10;11.93;;;-2.60;99.90;;;;;;5094329;28;20461;-87
2021/12/23 02:54:23;;;;;;;30.57;13.40;;;-2.60;99.90;;;;;;5090394;28;20420;-86
2021/12/23 02:56:49;;;;;;;24.40;12.40;;;-2.60;99.90;;;;;;5092948;28;20194;-87
2021/12/23 02:59:14;;;;;;;23.57;14.07;;;-2.60;99.90;;;;;;5092851;28;20177;-87
2021/12/23 03:01:40;;;;;;;20.70;13.53;;;-2.50;99.90;;;;;;5093178;28;20226;-87
2021/12/23 03:04:06;;;;;;;27.00;14.37;;;-2.50;99.90;;;;;;5092945;28;20170;-87
2021/12/23 03:06:31;;;;;;;26.87;13.07;;;-2.50;99.90;;;;;;5093370;28;20170;-86
2021/12/23 03:08:59;;;;;;;18.40;12.20;;;-2.60;99.90;;;;;;5094389;28;20169;-87
2021/12/23 03:11:27;;;;;;;30.37;13.53;;;-2.60;99.90;;;;;;5088852;28;20208;-86
2021/12/23 03:13:53;;;;;;;21.53;12.90;;;-2.50;99.90;;;;;;5094160;28;20416;-87
2021/12/23 03:16:25;;;;;;;28.60;13.70;;;-2.50;99.90;;;;;;5093780;28;20416;-86
2021/12/23 03:18:51;;;;;;;22.00;11.90;;;-2.60;99.90;;;;;;5093540;28;20411;-88
2021/12/23 03:21:17;;;;;;;19.07;11.50;;;-2.50;99.90;;;;;;5093657;28;20467;-86
2021/12/23 03:23:42;;;;;;;24.93;13.17;;;-2.50;99.90;;;;;;5092591;28;20420;-87
2021/12/23 03:26:08;;;;;;;22.67;11.13;;;-2.50;99.90;;;;;;5093826;28;20699;-86
2021/12/23 03:28:34;;;;;;;21.60;11.63;;;-2.50;99.90;;;;;;5092471;28;20581;-87
2021/12/23 03:31:00;;;;;;;19.67;11.20;;;-2.50;99.90;;;;;;5092325;28;20413;-88
2021/12/23 03:33:26;;;;;;;17.90;12.30;;;-2.50;99.90;;;;;;5094341;28;20556;-87
2021/12/23 03:35:51;;;;;;;27.50;12.00;;;-2.50;99.90;;;;;;5093160;28;20179;-87
2021/12/23 03:38:18;;;;;;;20.93;13.30;;;-2.50;99.90;;;;;;5093285;28;20634;-87
2021/12/23 03:40:44;;;;;;;23.33;10.90;;;-2.50;99.90;;;;;;5093431;28;20210;-88
2021/12/23 03:43:12;;;;;;;22.53;12.40;;;-2.50;99.90;;;;;;5094683;28;20454;-87
2021/12/23 03:45:39;;;;;;;22.77;12.90;;;-2.50;99.90;;;;;;5094537;28;20415;-88
2021/12/23 03:48:05;;;;;;;23.20;13.13;;;-2.50;99.90;;;;;;5093400;28;20974;-86
2021/12/23 03:50:31;;;;;;;21.43;11.93;;;-2.50;99.90;;;;;;5093161;28;20509;-87
2021/12/23 03:52:57;;;;;;;20.00;10.97;;;-2.50;99.90;;;;;;5094480;28;20759;-87
2021/12/23 03:55:22;;;;;;;20.50;12.97;;;-2.50;99.90;;;;;;5094494;28;20428;-86
2021/12/23 03:57:48;;;;;;;27.13;13.10;;;-2.50;99.90;;;;;;5094221;28;20231;-87
2021/12/23 04:00:17;;;;;;;19.37;12.20;;;-2.50;99.90;;;;;;5094089;28;20216;-87
2021/12/23 04:02:43;;;;;;;18.83;10.07;;;-2.50;99.90;;;;;;5092724;28;20183;-86
2021/12/23 04:05:10;;;;;;;27.53;13.60;;;-2.40;99.90;;;;;;5092667;28;21007;-89
2021/12/23 04:07:38;;;;;;;20.13;11.67;;;-2.50;99.90;;;;;;5092916;28;20774;-89
2021/12/23 04:10:06;;;;;;;24.43;13.00;;;-2.50;99.90;;;;;;5094144;28;20427;-87
2021/12/23 04:12:31;;;;;;;25.57;12.57;;;-2.50;99.90;;;;;;5094102;28;20420;-88
2021/12/23 04:14:57;;;;;;;21.87;13.23;;;-2.50;99.90;;;;;;5092844;28;20498;-87
2021/12/23 04:17:23;;;;;;;33.20;14.63;;;-2.50;99.90;;;;;;5092614;28;20189;-87
2021/12/23 04:19:49;;;;;;;21.37;12.20;;;-2.50;99.90;;;;;;5092511;28;20273;-88
2021/12/23 04:22:15;;;;;;;21.20;12.60;;;-2.50;99.90;;;;;;5092598;28;20181;-87
2021/12/23 04:24:40;;;;;;;24.20;13.40;;;-2.50;99.90;;;;;;5093767;28;20965;-88
2021/12/23 04:27:07;;;;;;;18.40;10.80;;;-2.50;99.90;;;;;;5092747;28;20668;-88
2021/12/23 04:29:33;;;;;;;19.43;12.83;;;-2.50;99.90;;;;;;5093980;28;20182;-88
2021/12/23 04:31:59;;;;;;;22.93;12.03;;;-2.40;99.90;;;;;;5093853;28;20786;-88
2021/12/23 04:34:26;;;;;;;25.53;9.93;;;-2.40;99.90;;;;;;5092251;28;20427;-87
2021/12/23 04:36:52;;;;;;;23.17;11.90;;;-2.40;99.90;;;;;;5092373;28;20420;-87
2021/12/23 04:39:17;;;;;;;30.47;14.23;;;-2.40;99.90;;;;;;5093200;28;20463;-88
2021/12/23 04:41:43;;;;;;;21.33;12.90;;;-2.40;99.90;;;;;;5093502;28;20222;-87
2021/12/23 04:44:08;;;;;;;23.23;14.83;;;-2.40;99.90;;;;;;5092271;28;20165;-87
2021/12/23 04:46:34;;;;;;;21.60;13.07;;;-2.30;99.90;;;;;;5093448;28;20177;-87
2021/12/23 04:48:59;;;;;;;24.20;13.77;;;-2.40;99.90;;;;;;5093251;28;20177;-87
2021/12/23 04:51:25;;;;;;;16.90;12.13;;;-2.40;99.90;;;;;;5092184;28;20174;-89
2021/12/23 04:53:51;;;;;;;25.93;12.63;;;-2.40;99.90;;;;;;5093403;28;20168;-87
2021/12/23 04:56:19;;;;;;;19.97;10.73;;;-2.40;99.90;;;;;;5093514;28;20521;-88
2021/12/23 04:58:45;;;;;;;31.33;14.70;;;-2.40;99.90;;;;;;5092052;28;20178;-86
2021/12/23 05:01:21;;;;;;;24.50;12.10;;;-2.40;99.90;;;;;;5093304;28;20816;-86
2021/12/23 05:03:47;;;;;;;23.80;13.47;;;-2.30;99.90;;;;;;5092922;28;20411;-86
2021/12/23 05:06:16;;;;;;;22.20;13.93;;;-2.40;99.90;;;;;;5093109;28;20755;-87
2021/12/23 05:08:42;;;;;;;22.20;12.53;;;-2.40;99.90;;;;;;5093206;28;20504;-88
2021/12/23 05:11:08;;;;;;;21.73;12.17;;;-2.30;99.90;;;;;;5093206;28;20439;-86
2021/12/23 05:13:34;;;;;;;21.37;16.50;;;-2.30;99.90;;;;;;5091912;28;20929;-86
2021/12/23 05:15:59;;;;;;;24.30;12.70;;;-2.30;99.90;;;;;;5093317;28;20698;-87
2021/12/23 05:18:25;;;;;;;26.60;13.80;;;-2.30;99.90;;;;;;5092998;28;20171;-87
2021/12/23 05:20:51;;;;;;;28.43;13.90;;;-2.30;99.90;;;;;;5093099;28;20206;-87
2021/12/23 05:23:17;;;;;;;25.70;14.80;;;-2.30;99.90;;;;;;5091842;28;20183;-87
2021/12/23 05:25:43;;;;;;;31.63;15.10;;;-2.40;99.90;;;;;;5092011;28;20451;-88
2021/12/23 05:28:08;;;;;;;26.30;12.70;;;-2.40;99.90;;;;;;5093215;28;20416;-87
2021/12/23 05:30:34;;;;;;;33.80;15.50;;;-2.30;99.90;;;;;;5096260;28;20412;-86
2021/12/23 05:33:00;;;;;;;24.27;15.67;;;-2.30;99.90;;;;;;5097153;28;20197;-87
2021/12/23 05:35:25;;;;;;;23.97;13.43;;;-2.30;99.90;;;;;;5096679;28;20230;-87
2021/12/23 05:37:52;;;;;;;23.37;13.43;;;-2.30;99.90;;;;;;5095619;28;20201;-89
2021/12/23 05:40:20;;;;;;;25.93;14.30;;;-2.20;99.90;;;;;;5095853;28;20214;-87
2021/12/23 05:42:47;;;;;;;26.83;15.33;;;-2.30;99.90;;;;;;5095741;28;20413;-87
2021/12/23 05:45:13;;;;;;;31.00;14.40;;;-2.30;99.90;;;;;;5102311;28;20561;-87
2021/12/23 05:47:39;;;;;;;25.37;14.60;;;-2.20;99.90;;;;;;5107136;28;20419;-90
2021/12/23 05:50:07;;;;;;;27.10;14.97;;;-2.20;99.90;;;;;;5106496;28;20461;-87
2021/12/23 05:52:32;;;;;;;27.53;13.80;;;-2.20;99.90;;;;;;5106804;28;20495;-87
2021/12/23 05:54:58;;;;;;;24.33;12.87;;;-2.20;99.90;;;;;;5106698;28;20819;-87
2021/12/23 05:57:24;;;;;;;24.07;14.77;;;-2.20;99.90;;;;;;5097324;28;20167;-85
2021/12/23 05:59:49;;;;;;;28.33;14.83;;;-2.20;99.90;;;;;;5096587;28;20216;-85
2021/12/23 06:02:15;;;;;;;20.30;12.97;;;-2.20;99.90;;;;;;5096539;28;20448;-83
2021/12/23 06:04:41;;;;;;;26.27;14.27;;;-2.20;99.90;;;;;;5096161;28;20536;-85
2021/12/23 06:07:06;;;;;;;23.10;13.77;;;-2.20;99.90;;;;;;5096404;28;20172;-85
2021/12/23 06:09:32;;;;;;;21.87;10.60;;;-2.20;99.90;;;;;;5096577;28;20167;-83
2021/12/23 06:11:58;;;;;;;27.00;14.63;;;-2.10;99.90;;;;;;5096363;28;20682;-82
2021/12/23 06:14:23;;;;;;;27.53;14.43;;;-2.10;99.90;;;;;;5096216;28;20404;-83
2021/12/23 06:16:49;;;;;;;19.33;13.77;;;-2.10;99.90;;;;;;5096552;28;20179;-83
2021/12/23 06:19:15;;;;;;;14.40;10.80;;;-2.10;99.90;;;;;;5094623;28;20200;-83
2021/12/23 06:21:41;;;;;;;24.97;13.37;;;-2.10;99.90;;;;;;5094859;28;20223;-83
2021/12/23 06:24:07;;;;;;;27.00;13.50;;;-2.10;99.90;;;;;;5094768;28;20416;-83
2021/12/23 06:26:33;;;;;;;26.87;13.17;;;-2.10;99.90;;;;;;5096066;28;20166;-82
2021/12/23 06:28:59;;;;;;;29.13;15.30;;;-2.10;99.90;;;;;;5096161;28;20170;-82
2021/12/23 06:31:25;;;;;;;19.03;11.00;;;-2.10;99.90;;;;;;5096045;28;20421;-84
2021/12/23 06:33:51;;;;;;;23.00;13.13;;;-2.10;99.90;;;;;;5094391;28;20417;-79
2021/12/23 06:36:17;;;;;;;22.40;12.33;;;-2.10;99.90;;;;;;5095895;28;20438;-79
2021/12/23 06:38:44;;;;;;;27.20;13.70;;;-2.10;99.90;;;;;;5095306;28;20626;-80
2021/12/23 06:41:11;;;;;;;23.40;12.93;;;-2.00;99.90;;;;;;5089700;28;20470;-79
2021/12/23 06:43:36;;;;;;;23.90;14.50;;;-2.10;99.90;;;;;;5075472;28;20564;-79
2021/12/23 06:46:03;;;;;;;25.30;13.83;;;-2.10;99.90;;;;;;5083075;28;20533;-79
2021/12/23 06:48:32;;;;;;;24.60;12.90;;;-2.10;99.90;;;;;;5095365;28;20257;-80
2021/12/23 06:50:59;;;;;;;15.40;12.30;;;-2.00;99.90;;;;;;5095499;28;20958;-79
2021/12/23 06:53:26;;;;;;;27.70;13.17;;;-2.00;99.90;;;;;;5095559;28;20419;-79
2021/12/23 06:55:52;;;;;;;20.70;12.37;;;-2.00;99.90;;;;;;5095763;28;20469;-79
2021/12/23 06:58:25;;;;;;;20.60;12.20;;;-2.00;99.90;;;;;;5095407;28;20806;-79
2021/12/23 07:00:52;;;;;;;33.10;13.97;;;-2.00;99.90;;;;;;5095312;28;20463;-79
2021/12/23 07:03:18;;;;;;;24.37;15.03;;;-2.00;99.90;;;;;;5094997;28;20914;-79
2021/12/23 07:05:44;;;;;;;22.00;14.83;;;-1.90;99.90;;;;;;5094017;28;20410;-79
2021/12/23 07:08:25;;;;;;;24.00;14.93;;;-1.90;99.90;;;;;;5093978;28;20600;-79
2021/12/23 07:10:51;;;;;;;29.43;11.90;;;-2.00;99.90;;;;;;5095251;28;20628;-80
2021/12/23 07:13:17;;;;;;;20.23;11.80;;;-2.00;99.90;;;;;;5095140;28;20408;-79
2021/12/23 07:15:42;;;;;;;20.63;13.93;;;-1.90;99.90;;;;;;5095213;28;20260;-80
2021/12/23 07:18:08;;;;;;;22.30;12.10;;;-1.90;99.90;;;;;;5094646;28;20215;-79
2021/12/23 07:20:34;;;;;;;20.73;11.73;;;-1.90;99.90;;;;;;5094837;28;20273;-79
2021/12/23 07:23:00;;;;;;;25.43;12.80;;;-1.90;99.90;;;;;;5095082;28;20257;-79
2021/12/23 07:25:27;;;;;;;20.07;11.80;;;-1.90;99.90;;;;;;5094959;28;20831;-80
2021/12/23 07:27:53;;;;;;;17.10;11.87;;;-1.90;99.90;;;;;;5095023;28;20399;-79
2021/12/23 07:30:21;;;;;;;14.80;9.93;;;-1.90;99.90;;;;;;5094981;28;20917;-79
2021/12/23 07:32:48;;;;;;;23.27;12.63;;;-1.90;99.90;;;;;;5094623;28;20407;-79
2021/12/23 07:35:14;;;;;;;24.43;13.37;;;-1.90;99.90;;;;;;5094381;28;20410;-80
2021/12/23 07:37:40;;;;;;;20.13;11.93;;;-1.90;99.90;;;;;;5094888;28;20418;-80
2021/12/23 07:40:06;;;;;;;22.83;12.93;;;-1.90;99.90;;;;;;5094390;28;20236;-80
2021/12/23 07:42:34;;;;;;;24.50;14.70;;;-1.80;99.90;;;;;;5094496;28;20408;-79
2021/12/23 07:45:01;;;;;;;21.47;13.77;;;-1.80;99.90;;;;;;5094648;28;20419;-79
2021/12/23 07:47:28;;;;;;;22.33;13.80;;;-1.80;99.90;;;;;;5094534;28;20448;-80
2021/12/23 07:49:54;;;;;;;22.30;12.70;;;-1.80;99.90;;;;;;5094118;28;20420;-79
2021/12/23 07:52:21;;;;;;;18.57;11.87;;;-1.80;99.90;;;;;;5093925;28;20427;-80
2021/12/23 07:54:46;;;;;;;21.00;13.17;;;-1.70;99.90;;;;;;5094248;28;20171;-80
2021/12/23 07:57:12;;;;;;;22.37;9.97;;;-1.60;99.90;;;;;;5093326;28;20418;-80
2021/12/23 07:59:38;;;;;;;28.07;13.47;;;-1.70;99.90;;;;;;5094110;28;20186;-80
2021/12/23 08:02:03;;;;;;;20.57;13.93;;;-1.70;99.90;;;;;;5094072;28;20178;-80
2021/12/23 08:04:30;;;;;;;21.00;14.40;;;-1.60;99.90;;;;;;5093746;28;20524;-80
2021/12/23 08:06:57;;;;;;;20.50;12.50;;;-1.60;99.90;;;;;;5094331;28;20625;-79
2021/12/23 08:09:24;;;;;;;20.20;12.67;;;-1.60;99.90;;;;;;5093950;28;20466;-80
2021/12/23 08:11:50;;;;;;;22.63;12.60;;;-1.60;99.90;;;;;;5094074;28;20423;-81
2021/12/23 08:14:17;;;;;;;21.60;13.57;;;-1.60;99.90;;;;;;5093796;28;20782;-80
2021/12/23 08:16:43;;;;;;;21.23;12.37;;;-1.60;99.90;;;;;;5091549;28;20451;-82
2021/12/23 08:19:09;;;;;;;22.57;12.00;;;-1.60;99.90;;;;;;5091689;28;20837;-81
2021/12/23 08:21:35;;;;;;;18.27;10.77;;;-1.60;99.90;;;;;;5093686;28;20472;-80
2021/12/23 08:24:01;;;;;;;19.00;11.53;;;-1.60;99.90;;;;;;5092454;28;20851;-81
2021/12/23 08:26:29;;;;;;;20.30;13.37;;;-1.60;99.90;;;;;;5092091;28;20171;-81
2021/12/23 08:28:56;;;;;;;16.03;11.17;;;-1.50;99.90;;;;;;5092267;28;20158;-80
2021/12/23 08:31:23;;;;;;;23.17;13.73;;;-1.50;99.90;;;;;;5089473;28;20951;-82
2021/12/23 08:33:49;;;;;;;22.13;13.57;;;-1.50;99.90;;;;;;5091896;28;20417;-80
2021/12/23 08:36:16;;;;;;;25.03;14.60;;;-1.50;99.90;;;;;;5092321;28;20943;-80
2021/12/23 08:38:42;;;;;;;20.20;12.33;;;-1.50;99.90;;;;;;5089264;28;20436;-80
2021/12/23 08:41:08;;;;;;;21.00;12.90;;;-1.50;99.90;;;;;;5092103;28;20472;-79
2021/12/23 08:43:35;;;;;;;22.63;11.80;;;-1.40;99.90;;;;;;5092185;28;20495;-81
2021/12/23 08:46:02;;;;;;;23.50;12.90;;;-1.40;99.90;;;;;;5092011;28;20782;-81
2021/12/23 08:48:28;;;;;;;25.20;14.40;;;-1.40;99.90;;;;;;5091697;28;20406;-80
2021/12/23 08:50:54;;;;;;;20.33;11.70;;;-1.40;99.90;;;;;;5090655;28;20422;-80
2021/12/23 08:53:20;;;;;;;16.90;10.57;;;-1.30;99.90;;;;;;5092046;28;20199;-83
2021/12/23 08:55:45;;;;;;;23.93;14.27;;;-1.30;99.90;;;;;;5092083;28;20457;-80
2021/12/23 08:58:11;;;;;;;18.97;11.90;;;-1.30;99.90;;;;;;5092952;28;20196;-81
2021/12/23 09:00:38;;;;;;;20.47;12.70;;;-1.30;99.90;;;;;;5092425;28;20231;-80
2021/12/23 09:03:05;;;;;;;20.83;12.90;;;-1.30;99.90;;;;;;5091611;28;20167;-80
2021/12/23 09:05:31;;;;;;;16.80;12.27;;;-1.20;99.90;;;;;;5090710;28;20461;-80
2021/12/23 09:07:57;;;;;;;22.90;13.57;;;-1.20;99.90;;;;;;5093228;28;20402;-80
2021/12/23 09:10:23;;;;;;;16.07;10.87;;;-1.20;99.90;;;;;;5093183;28;20429;-80
2021/12/23 09:12:50;;;;;;;20.23;12.43;;;-1.20;99.90;;;;;;5093513;28;20166;-81
2021/12/23 09:15:16;;;;;;;22.23;12.70;;;-1.20;99.90;;;;;;5093052;28;20179;-82
2021/12/23 09:17:42;;;;;;;20.23;12.53;;;-1.10;99.90;;;;;;5093271;28;20411;-81
2021/12/23 09:20:10;;;;;;;23.87;14.77;;;-1.10;99.90;;;;;;5092757;28;20230;-81
2021/12/23 09:22:36;;;;;;;22.03;12.57;;;-1.10;99.90;;;;;;5092676;28;20499;-80
2021/12/23 09:25:08;;;;;;;20.23;12.47;;;-1.10;99.90;;;;;;5092330;28;20493;-80
2021/12/23 09:27:40;;;;;;;22.40;13.90;;;-1.00;99.90;;;;;;5093058;28;20424;-80
2021/12/23 09:32:53;;;;;;;14.70;10.53;;;-0.90;99.90;;;;;;5093089;28;20408;-80
2021/12/23 09:35:21;;;;;;;23.13;13.87;;;-0.80;99.90;;;;;;5092813;28;20410;-80
2021/12/23 09:37:48;;;;;;;22.13;12.27;;;-0.70;99.90;;;;;;5092421;28;20417;-80
2021/12/23 09:40:14;;;;;;;20.50;14.20;;;-0.70;99.90;;;;;;5091700;28;20477;-81
2021/12/23 09:42:43;;;;;;;18.03;11.40;;;-0.60;99.90;;;;;;5091356;28;20428;-81
2021/12/23 09:45:12;;;;;;;26.40;12.50;;;-0.60;99.90;;;;;;5092958;28;20742;-80
2021/12/23 09:47:41;;;;;;;23.73;12.57;;;-0.50;99.90;;;;;;5092785;28;20429;-82
2021/12/23 09:50:11;;;;;;;17.67;12.47;;;-0.60;99.90;;;;;;5091516;28;20433;-85
2021/12/23 09:52:41;;;;;;;21.97;13.47;;;-0.60;99.90;;;;;;5092802;28;20775;-80
2021/12/23 09:55:08;;;;;;;18.70;11.63;;;-0.60;99.90;;;;;;5091609;28;20816;-80
2021/12/23 09:57:34;;;;;;;19.97;13.13;;;-0.60;99.90;;;;;;5092874;28;20432;-80
2021/12/23 09:59:59;;;;;;;19.00;10.97;;;-0.60;99.90;;;;;;5092775;28;20518;-80
2021/12/23 10:02:25;;;;;;;18.47;12.73;;;-0.60;99.90;;;;;;5091476;28;20440;-80
2021/12/23 10:04:51;;;;;;;25.57;13.63;;;-0.60;99.90;;;;;;5092282;28;20257;-80
2021/12/23 10:07:18;;;;;;;19.13;11.00;;;-0.60;99.90;;;;;;5092762;28;20276;-80
2021/12/23 10:09:58;;;;;;;19.90;12.80;;;-0.60;99.90;;;;;;5092659;28;20199;-80
2021/12/23 10:13:04;;;;;;;21.40;12.07;;;-0.60;99.90;;;;;;5092799;28;20413;-80
2021/12/23 10:37:17;;;;;;;18.57;12.77;;;-0.40;99.90;;;;;;5096192;28;20418;-83
2021/12/23 10:39:45;;;;;;;22.20;13.73;;;-0.50;99.90;;;;;;5094289;28;20222;-81
2021/12/23 10:42:11;;;;;;;20.10;13.03;;;-0.40;99.90;;;;;;5094685;28;20440;-81
2021/12/23 10:44:38;;;;;;;14.50;10.77;;;-0.30;99.90;;;;;;5095730;28;20415;-81
2021/12/23 10:47:06;;;;;;;22.40;12.40;;;-0.30;99.90;;;;;;5095750;28;20418;-80
2021/12/23 10:49:39;;;;;;;19.00;11.57;;;-0.40;99.90;;;;;;5095244;28;20499;-80
2021/12/23 10:52:16;;;;;;;20.23;13.43;;;-0.40;99.90;;;;;;5095659;28;20421;-80
2021/12/23 11:00:35;;;;;;;17.10;11.83;;;-0.40;99.90;;;;;;5095678;28;20480;-80
2021/12/23 11:03:16;;;;;;;17.43;11.57;;;-0.30;99.90;;;;;;5095171;28;20472;-80
2021/12/23 11:05:50;;;;;;;18.83;14.20;;;-0.30;99.90;;;;;;5095520;28;20424;-80
2021/12/23 11:38:30;;;;;;;19.67;11.37;;;-0.10;99.90;;;;;;5094644;28;20444;-81
2021/12/23 11:41:02;;;;;;;18.70;11.77;;;-0.10;99.90;;;;;;5094794;28;20466;-81
2021/12/23 11:46:14;;;;;;;19.13;12.00;;;0.00;99.90;;;;;;5094681;28;20426;-80
2021/12/23 11:48:43;;;;;;;22.50;13.20;;;0.00;99.90;;;;;;5087346;28;20525;-81
2021/12/23 11:51:16;;;;;;;17.50;11.37;;;0.00;99.90;;;;;;5094999;28;20422;-81
2021/12/23 11:53:47;;;;;;;21.33;12.63;;;0.00;99.90;;;;;;5114653;28;20421;-80
2021/12/23 11:56:13;;;;;;;16.40;11.83;;;0.10;99.90;;;;;;5114805;28;20410;-80
2021/12/23 11:58:43;;;;;;;21.57;13.00;;;0.10;99.90;;;;;;5114714;28;20922;-80
2021/12/23 12:01:14;;;;;;;16.27;10.37;;;0.10;99.90;;;;;;5114614;28;20518;-83
2021/12/23 12:03:53;;;;;;;17.07;12.00;;;0.00;99.90;;;;;;5114385;28;20804;-80
2021/12/23 12:06:23;;;;;;;19.77;11.77;;;0.00;99.90;;;;;;5114595;28;20409;-80
2021/12/23 12:08:54;;;;;;;14.57;12.07;;;0.00;99.90;;;;;;5114472;28;20771;-80
2021/12/23 12:11:22;;;;;;;16.50;12.63;;;0.10;99.90;;;;;;5112009;28;20418;-80
2021/12/23 12:13:48;;;;;;;18.00;11.03;;;0.10;99.90;;;;;;5113730;28;20465;-80
2021/12/23 12:16:35;;;;;;;24.70;12.80;;;0.10;99.90;;;;;;5114346;28;20847;-80
2021/12/23 12:19:04;;;;;;;22.40;13.67;;;0.10;99.90;;;;;;5113900;28;20486;-80
2021/12/23 12:21:33;;;;;;;19.53;12.57;;;0.10;99.90;;;;;;5114166;28;20464;-81
2021/12/23 12:24:07;;;;;;;22.37;14.97;;;0.10;99.90;;;;;;5113999;28;20423;-81
2021/12/23 12:26:35;;;;;;;20.97;12.40;;;0.10;99.90;;;;;;5114059;28;20509;-80
2021/12/23 12:29:04;;;;;;;18.20;12.83;;;0.20;99.90;;;;;;5129898;27;20416;-81
2021/12/23 12:31:39;;;;;;;24.10;14.33;;;0.20;99.90;;;;;;5114062;28;20404;-80
2021/12/23 12:34:06;;;;;;;22.07;14.30;;;0.20;99.90;;;;;;5112497;28;20466;-80
2021/12/23 12:36:47;;;;;;;23.70;13.80;;;0.20;99.90;;;;;;5113913;28;20464;-80
2021/12/23 12:39:23;;;;;;;24.70;15.37;;;0.20;99.90;;;;;;5113793;28;20448;-80
2021/12/23 12:41:49;;;;;;;21.87;13.33;;;0.20;99.90;;;;;;5114086;28;20461;-80
2021/12/23 12:49:45;;;;;;;20.37;12.67;;;0.20;99.90;;;;;;5113422;28;20417;-81
2021/12/23 12:52:31;;;;;;;29.60;13.10;;;0.20;99.90;;;;;;5112489;28;20429;-81
2021/12/23 12:55:04;;;;;;;15.53;11.50;;;0.20;99.90;;;;;;5112670;28;20995;-84
2021/12/23 12:57:36;;;;;;;18.60;11.57;;;0.20;99.90;;;;;;5113704;28;20416;-80
2021/12/23 13:00:20;;;;;;;22.03;12.77;;;0.10;99.90;;;;;;5113589;28;20531;-80
2021/12/23 13:03:14;;;;;;;17.40;12.37;;;0.10;99.90;;;;;;5113222;28;20913;-82
2021/12/23 13:05:52;;;;;;;19.77;12.97;;;0.10;99.90;;;;;;5105527;28;20797;-81
2021/12/23 13:08:28;;;;;;;17.90;13.17;;;0.20;99.90;;;;;;5113754;28;20810;-81
2021/12/23 13:11:21;;;;;;;25.30;14.00;;;0.20;99.90;;;;;;5113597;28;20401;-80
2021/12/23 13:13:59;;;;;;;18.13;12.23;;;0.20;99.90;;;;;;5102307;28;20445;-81
2021/12/23 13:16:25;;;;;;;21.50;13.13;;;0.30;99.90;;;;;;5113449;28;20413;-80
2021/12/23 13:19:13;;;;;;;20.53;13.20;;;0.30;99.90;;;;;;5113236;28;20473;-80
2021/12/23 13:21:44;;;;;;;26.77;12.83;;;0.30;99.90;;;;;;5113415;28;20468;-81
2021/12/23 13:24:12;;;;;;;22.80;12.80;;;0.30;99.90;;;;;;5113416;28;20463;-81
2021/12/23 13:26:38;;;;;;;23.60;14.20;;;0.30;99.90;;;;;;5112144;28;20429;-84
2021/12/23 13:29:07;;;;;;;17.70;12.70;;;0.30;99.90;;;;;;5113387;28;20405;-80
2021/12/23 13:31:34;;;;;;;18.10;11.70;;;0.30;99.90;;;;;;5113423;28;20440;-80
2021/12/23 13:34:10;;;;;;;17.37;12.13;;;0.20;99.90;;;;;;5113008;28;20406;-82
2021/12/23 13:36:41;;;;;;;19.20;13.80;;;0.30;99.90;;;;;;5113294;28;20425;-80
2021/12/23 13:39:09;;;;;;;19.83;12.17;;;0.20;99.90;;;;;;5113327;28;20446;-80
2021/12/23 13:41:46;;;;;;;21.93;14.07;;;0.20;99.90;;;;;;5113020;27;20465;-80
2021/12/23 13:44:15;;;;;;;21.20;14.13;;;0.20;99.90;;;;;;5113486;28;20405;-81